createdAt,value
2019-03-20T00:01:27.876Z,7.43
2019-03-20T00:03:55.393Z,14.10
2019-03-20T00:06:22.914Z,12.93
2019-03-20T00:08:50.420Z,8.93
2019-03-20T00:11:17.687Z,12.27
2019-03-20T00:13:45.071Z,10.17
2019-03-20T00:16:12.399Z,13.33
2019-03-20T00:18:40.076Z,15.17
2019-03-20T00:21:07.566Z,18.43
2019-03-20T00:23:36.171Z,15.70
2019-03-20T00:26:03.746Z,15.23
2019-03-20T00:28:31.402Z,19.90
2019-03-20T00:30:58.896Z,26.10
2019-03-20T00:33:26.619Z,15.00
2019-03-20T00:35:54.300Z,12.27
2019-03-20T00:38:21.971Z,14.83
2019-03-20T00:40:49.323Z,20.57
2019-03-20T00:43:16.774Z,24.50
2019-03-20T00:45:44.316Z,16.73
2019-03-20T00:48:11.869Z,10.50
2019-03-20T00:50:39.335Z,11.03
2019-03-20T00:53:07.940Z,8.90
2019-03-20T00:55:35.261Z,10.23
2019-03-20T00:58:03.060Z,15.93
2019-03-20T01:00:30.601Z,9.03
2019-03-20T01:02:58.188Z,12.17
2019-03-20T01:05:25.835Z,7.80
2019-03-20T01:07:53.589Z,12.57
2019-03-20T01:10:20.975Z,10.17
2019-03-20T01:12:49.006Z,15.20
2019-03-20T01:15:16.648Z,12.33
2019-03-20T01:17:44.240Z,10.17
2019-03-20T01:20:13.616Z,9.27
2019-03-20T01:22:41.275Z,8.60
2019-03-20T01:25:09.245Z,12.20
2019-03-20T01:27:36.752Z,13.13
2019-03-20T01:30:04.612Z,15.57
2019-03-20T01:32:32.200Z,13.53
2019-03-20T01:34:59.744Z,11.90
2019-03-20T01:37:27.166Z,9.37
2019-03-20T01:39:54.690Z,14.13
2019-03-20T01:42:22.186Z,12.90
2019-03-20T01:44:49.681Z,10.97
2019-03-20T01:47:17.038Z,13.07
2019-03-20T01:49:44.446Z,11.73
2019-03-20T01:52:11.746Z,11.43
2019-03-20T01:54:39.323Z,14.30
2019-03-20T01:57:06.644Z,11.00
2019-03-20T01:59:34.171Z,12.57
2019-03-20T02:02:01.635Z,15.30
2019-03-20T02:04:29.199Z,11.13
2019-03-20T02:06:56.622Z,11.57
2019-03-20T02:09:24.048Z,15.43
2019-03-20T02:11:51.474Z,13.83
2019-03-20T02:14:18.970Z,10.53
2019-03-20T02:16:46.344Z,10.47
2019-03-20T02:19:13.558Z,9.77
2019-03-20T02:21:41.227Z,12.00
2019-03-20T02:24:08.668Z,12.20
2019-03-20T02:26:35.963Z,12.17
2019-03-20T02:29:03.815Z,16.37
2019-03-20T02:31:31.203Z,10.97
2019-03-20T02:33:58.597Z,12.57
2019-03-20T02:36:26.061Z,11.60
2019-03-20T02:38:53.431Z,14.00
2019-03-20T02:41:21.294Z,10.10
2019-03-20T02:43:48.697Z,12.43
2019-03-20T02:46:15.970Z,11.63
2019-03-20T02:48:43.525Z,12.13
2019-03-20T02:51:11.041Z,18.40
2019-03-20T02:53:38.791Z,11.73
2019-03-20T02:56:06.600Z,13.40
2019-03-20T02:58:33.962Z,14.97
2019-03-20T03:01:01.622Z,15.50
2019-03-20T03:03:28.973Z,13.93
2019-03-20T03:06:06.814Z,13.63
2019-03-20T03:08:25.898Z,11.33
2019-03-20T03:10:55.711Z,15.30
2019-03-20T03:13:22.720Z,14.00
2019-03-20T03:15:50.173Z,14.30
2019-03-20T03:18:17.574Z,13.80
2019-03-20T03:20:44.966Z,16.47
2019-03-20T03:23:12.688Z,21.70
2019-03-20T03:25:39.993Z,16.37
2019-03-20T03:28:07.402Z,14.10
2019-03-20T03:30:35.348Z,15.63
2019-03-20T03:33:02.780Z,15.30
2019-03-20T03:35:30.473Z,12.37
2019-03-20T03:37:57.932Z,14.33
2019-03-20T03:40:25.476Z,17.00
2019-03-20T03:42:52.959Z,13.43
2019-03-20T03:45:20.522Z,13.80
2019-03-20T03:47:48.004Z,14.60
2019-03-20T03:50:15.395Z,12.83
2019-03-20T03:52:43.228Z,11.07
2019-03-20T03:55:10.531Z,13.50
2019-03-20T03:57:38.067Z,10.93
2019-03-20T04:00:06.293Z,8.23
2019-03-20T04:02:33.751Z,12.40
2019-03-20T04:05:01.379Z,13.87
2019-03-20T04:07:28.820Z,14.10
2019-03-20T04:09:56.121Z,14.47
2019-03-20T04:12:23.725Z,10.50
2019-03-20T04:14:51.071Z,11.97
2019-03-20T04:17:23.097Z,17.17
2019-03-20T04:19:50.625Z,11.70
2019-03-20T04:22:19.203Z,13.00
2019-03-20T04:24:46.823Z,18.17
2019-03-20T04:27:14.404Z,15.63
2019-03-20T04:29:42.107Z,13.93
2019-03-20T04:32:09.596Z,13.60
2019-03-20T04:34:37.241Z,18.80
2019-03-20T04:37:04.759Z,17.17
2019-03-20T04:39:32.077Z,17.40
2019-03-20T04:41:59.660Z,14.13
2019-03-20T04:44:27.348Z,21.87
2019-03-20T04:46:55.662Z,16.23
2019-03-20T04:49:23.169Z,14.07
2019-03-20T04:51:50.578Z,16.20
2019-03-20T04:54:17.908Z,13.80
2019-03-20T04:56:45.364Z,16.67
2019-03-20T04:59:12.870Z,18.83
2019-03-20T05:01:40.485Z,18.27
2019-03-20T05:04:08.026Z,15.63
2019-03-20T05:06:35.441Z,10.57
2019-03-20T05:09:04.299Z,14.80
2019-03-20T05:11:31.774Z,14.57
2019-03-20T05:13:59.226Z,16.20
2019-03-20T05:16:26.685Z,15.33
2019-03-20T05:18:54.250Z,13.20
2019-03-20T05:21:21.627Z,11.87
2019-03-20T05:23:48.954Z,9.23
2019-03-20T05:26:16.308Z,13.93
2019-03-20T05:28:43.637Z,12.50
2019-03-20T05:31:11.092Z,16.53
2019-03-20T05:33:38.462Z,19.33
2019-03-20T05:36:05.931Z,14.67
2019-03-20T05:38:33.444Z,15.63
2019-03-20T05:41:00.787Z,16.70
2019-03-20T05:43:28.273Z,11.83
2019-03-20T05:45:55.585Z,17.33
2019-03-20T05:48:23.037Z,14.37
2019-03-20T05:50:51.992Z,13.43
2019-03-20T05:53:19.578Z,12.10
2019-03-20T05:55:47.403Z,14.03
2019-03-20T05:58:14.737Z,13.73
2019-03-20T06:00:43.774Z,12.67
2019-03-20T06:03:11.110Z,20.23
2019-03-20T06:05:38.436Z,13.83
2019-03-20T06:08:05.777Z,13.60
2019-03-20T06:10:33.253Z,17.30
2019-03-20T06:13:01.830Z,19.73
2019-03-20T06:15:29.642Z,14.70
2019-03-20T06:17:57.032Z,12.27
2019-03-20T06:20:24.381Z,13.60
2019-03-20T06:22:51.749Z,16.80
2019-03-20T06:25:21.301Z,17.63
2019-03-20T06:27:48.464Z,21.10
2019-03-20T06:30:15.810Z,14.53
2019-03-20T06:32:43.161Z,23.53
2019-03-20T06:35:10.642Z,21.10
2019-03-20T06:37:38.148Z,25.03
2019-03-20T06:40:06.633Z,27.63
2019-03-20T06:42:34.048Z,29.20
2019-03-20T06:45:01.390Z,22.17
2019-03-20T06:47:29.126Z,30.03
2019-03-20T06:49:56.544Z,23.53
2019-03-20T06:52:24.543Z,20.87
2019-03-20T06:54:51.991Z,19.77
2019-03-20T06:57:19.521Z,18.07
2019-03-20T07:00:46.975Z,16.60
2019-03-20T07:03:19.067Z,20.37
2019-03-20T07:06:21.009Z,19.53
2019-03-20T07:08:52.177Z,18.30
2019-03-20T07:11:18.637Z,24.20
2019-03-20T07:13:45.706Z,17.97
2019-03-20T07:16:13.194Z,17.70
2019-03-20T07:18:40.715Z,18.33
2019-03-20T07:21:08.334Z,16.13
2019-03-20T07:23:35.952Z,17.73
2019-03-20T07:26:04.014Z,15.10
2019-03-20T07:28:31.486Z,18.50
2019-03-20T07:30:59.102Z,18.27
2019-03-20T07:33:26.611Z,17.30
2019-03-20T07:35:53.914Z,11.40
2019-03-20T07:38:21.652Z,12.27
2019-03-20T07:40:49.318Z,10.83
2019-03-20T07:43:16.818Z,18.90
2019-03-20T07:45:44.290Z,17.93
2019-03-20T07:48:21.456Z,13.70
2019-03-20T07:50:41.179Z,28.20
2019-03-20T07:53:08.580Z,19.17
2019-03-20T07:55:36.934Z,18.13
2019-03-20T07:58:04.704Z,16.47
2019-03-20T08:00:32.469Z,19.40
2019-03-20T08:02:59.677Z,21.17
2019-03-20T08:05:29.475Z,18.93
2019-03-20T08:08:06.381Z,16.93
2019-03-20T08:10:25.735Z,15.57
2019-03-20T08:12:53.541Z,15.40
2019-03-20T08:15:21.234Z,15.50
2019-03-20T08:17:48.786Z,21.77
2019-03-20T08:20:16.431Z,23.90
2019-03-20T08:22:43.975Z,18.90
2019-03-20T08:25:11.308Z,24.37
2019-03-20T08:27:38.810Z,20.70
2019-03-20T08:30:07.266Z,19.87
2019-03-20T08:32:34.820Z,14.50
2019-03-20T08:35:02.717Z,14.77
2019-03-20T08:37:30.618Z,19.13
2019-03-20T08:39:57.919Z,11.57
2019-03-20T08:42:26.404Z,11.30
2019-03-20T08:44:54.006Z,10.40
2019-03-20T08:47:21.401Z,12.40
2019-03-20T08:49:48.787Z,13.90
2019-03-20T08:52:16.352Z,10.83
2019-03-20T08:54:43.705Z,11.37
2019-03-20T08:57:11.016Z,14.00
2019-03-20T08:59:38.601Z,10.47
2019-03-20T09:02:06.107Z,14.23
2019-03-20T09:04:35.708Z,14.60
2019-03-20T09:07:03.017Z,14.37
2019-03-20T09:09:30.621Z,10.00
2019-03-20T09:11:58.326Z,12.07
2019-03-20T09:14:25.940Z,16.67
2019-03-20T09:16:53.399Z,12.50
2019-03-20T09:19:20.992Z,10.10
2019-03-20T09:21:48.801Z,14.60
2019-03-20T09:24:16.140Z,12.37
2019-03-20T09:26:43.582Z,8.83
2019-03-20T09:29:18.485Z,13.20
2019-03-20T09:31:40.170Z,9.57
2019-03-20T09:34:07.791Z,9.63
2019-03-20T09:36:43.147Z,9.27
2019-03-20T09:39:06.621Z,9.90
2019-03-20T09:41:34.099Z,13.03
2019-03-20T09:44:01.570Z,15.27
2019-03-20T09:46:28.926Z,18.63
2019-03-20T09:48:56.439Z,9.70
2019-03-20T09:51:23.813Z,11.00
2019-03-20T09:53:51.271Z,13.03
2019-03-20T09:56:19.848Z,9.40
2019-03-20T09:58:47.209Z,10.27
2019-03-20T10:01:14.918Z,9.27
2019-03-20T10:03:42.355Z,10.33
2019-03-20T10:06:09.788Z,9.60
2019-03-20T10:08:37.281Z,10.37
2019-03-20T10:11:04.625Z,7.47
2019-03-20T10:13:32.114Z,7.70
2019-03-20T10:15:59.674Z,11.47
2019-03-20T10:18:27.214Z,7.43
2019-03-20T10:20:55.124Z,7.23
2019-03-20T10:23:22.995Z,4.60
2019-03-20T10:25:50.382Z,6.33
2019-03-20T10:28:18.231Z,10.17
2019-03-20T10:30:45.809Z,7.13
2019-03-20T10:33:13.507Z,6.50
2019-03-20T10:35:49.905Z,4.73
2019-03-20T10:38:10.444Z,8.63
2019-03-20T10:40:37.897Z,8.47
2019-03-20T10:43:05.385Z,6.93
2019-03-20T10:45:32.860Z,5.63
2019-03-20T10:48:00.441Z,7.80
2019-03-20T10:50:27.881Z,8.77
2019-03-20T10:52:55.502Z,6.33
2019-03-20T10:55:23.413Z,8.50
2019-03-20T10:57:50.853Z,6.20
2019-03-20T11:00:19.360Z,7.27
2019-03-20T11:02:46.887Z,7.37
2019-03-20T11:05:16.611Z,18.37
2019-03-20T11:07:44.192Z,7.87
2019-03-20T11:10:13.490Z,6.17
2019-03-20T11:12:40.913Z,8.47
2019-03-20T11:15:10.166Z,4.70
2019-03-20T11:17:37.642Z,14.10
2019-03-20T11:20:05.343Z,7.90
2019-03-20T11:22:32.680Z,9.27
2019-03-20T11:25:00.434Z,6.83
2019-03-20T11:27:29.612Z,9.57
2019-03-20T11:29:57.188Z,6.03
2019-03-20T11:32:25.618Z,5.43
2019-03-20T11:34:53.602Z,5.27
2019-03-20T11:37:20.956Z,7.17
2019-03-20T11:39:49.470Z,8.27
2019-03-20T11:42:17.286Z,8.13
2019-03-20T11:44:44.917Z,5.90
2019-03-20T11:47:12.314Z,5.70
2019-03-20T11:49:39.808Z,6.03
2019-03-20T11:52:07.283Z,11.37
2019-03-20T11:54:35.218Z,16.17
2019-03-20T11:57:02.692Z,5.53
2019-03-20T11:59:30.180Z,8.47
2019-03-20T12:01:57.857Z,10.90
2019-03-20T12:04:25.329Z,8.70
2019-03-20T12:06:53.396Z,8.63
2019-03-20T12:09:20.961Z,7.10
2019-03-20T12:11:48.345Z,8.13
2019-03-20T12:14:15.713Z,9.17
2019-03-20T12:16:43.073Z,8.87
2019-03-20T12:19:10.550Z,7.07
2019-03-20T12:21:37.935Z,6.90
2019-03-20T12:24:07.243Z,9.20
2019-03-20T12:26:34.852Z,4.77
2019-03-20T12:29:02.590Z,10.07
2019-03-20T12:31:30.012Z,4.83
2019-03-20T12:33:57.493Z,6.63
2019-03-20T12:36:24.853Z,9.07
2019-03-20T12:38:52.169Z,7.17
2019-03-20T12:41:19.532Z,12.50
2019-03-20T12:43:47.544Z,6.73
2019-03-20T12:46:15.026Z,6.67
2019-03-20T12:48:42.501Z,8.60
2019-03-20T12:51:09.846Z,15.30
2019-03-20T12:53:37.165Z,5.43
2019-03-20T12:56:04.603Z,11.53
2019-03-20T12:58:32.183Z,6.53
2019-03-20T13:00:59.513Z,8.97
2019-03-20T13:03:26.818Z,7.57
2019-03-20T13:05:54.340Z,8.90
2019-03-20T13:08:21.780Z,9.10
2019-03-20T13:10:49.389Z,6.03
2019-03-20T13:13:16.865Z,8.37
2019-03-20T13:15:44.351Z,6.20
2019-03-20T13:18:11.878Z,5.90
2019-03-20T13:20:39.247Z,6.00
2019-03-20T13:23:08.887Z,4.97
2019-03-20T13:25:36.790Z,5.10
2019-03-20T13:28:04.509Z,5.73
2019-03-20T13:30:37.903Z,5.63
2019-03-20T13:33:05.408Z,9.70
2019-03-20T13:35:33.225Z,7.00
2019-03-20T13:38:00.729Z,6.33
2019-03-20T13:40:28.207Z,3.83
2019-03-20T13:42:55.697Z,6.33
2019-03-20T13:45:23.172Z,4.47
2019-03-20T13:47:50.519Z,5.37
2019-03-20T13:50:18.003Z,4.70
2019-03-20T13:52:45.571Z,6.73
2019-03-20T13:55:13.669Z,11.47
2019-03-20T13:57:41.466Z,8.30
2019-03-20T14:00:14.184Z,6.37
2019-03-20T14:02:41.893Z,6.40
2019-03-20T14:05:09.210Z,6.37
2019-03-20T14:07:36.568Z,3.83
2019-03-20T14:10:04.756Z,9.33
2019-03-20T14:12:33.526Z,7.30
2019-03-20T14:15:01.120Z,6.30
2019-03-20T14:17:28.426Z,8.70
2019-03-20T14:19:55.721Z,8.73
2019-03-20T14:22:23.041Z,7.00
2019-03-20T14:24:50.390Z,8.83
2019-03-20T14:27:18.185Z,7.07
2019-03-20T14:29:45.670Z,7.37
2019-03-20T14:32:13.085Z,8.47
2019-03-20T14:34:40.523Z,7.27
2019-03-20T14:37:08.037Z,6.43
2019-03-20T14:39:35.361Z,5.17
2019-03-20T14:42:03.181Z,6.90
2019-03-20T14:44:31.032Z,9.97
2019-03-20T14:46:58.552Z,5.93
2019-03-20T14:49:25.784Z,8.77
2019-03-20T14:51:53.630Z,10.67
2019-03-20T14:54:21.034Z,8.00
2019-03-20T14:56:48.506Z,4.40
2019-03-20T14:59:15.938Z,11.93
2019-03-20T15:01:43.447Z,7.60
2019-03-20T15:04:11.015Z,3.53
2019-03-20T15:06:38.555Z,4.83
2019-03-20T15:09:07.292Z,9.67
2019-03-20T15:11:34.788Z,9.83
2019-03-20T15:14:02.494Z,9.50
2019-03-20T15:16:29.854Z,7.20
2019-03-20T15:18:57.266Z,5.37
2019-03-20T15:21:24.772Z,4.77
2019-03-20T15:23:52.102Z,6.77
2019-03-20T15:26:19.449Z,6.83
2019-03-20T15:28:46.767Z,4.93
2019-03-20T15:31:14.120Z,12.10
2019-03-20T15:33:41.556Z,8.80
2019-03-20T15:36:14.403Z,6.03
2019-03-20T15:38:42.039Z,9.37
2019-03-20T15:41:10.059Z,6.97
2019-03-20T15:43:37.789Z,5.80
2019-03-20T15:46:05.411Z,9.77
2019-03-20T15:48:32.982Z,5.80
2019-03-20T15:51:00.795Z,11.97
2019-03-20T15:53:28.355Z,6.83
2019-03-20T15:55:55.907Z,7.20
2019-03-20T15:58:23.315Z,3.67
2019-03-20T16:00:51.087Z,9.77
2019-03-20T16:03:19.580Z,4.03
2019-03-20T16:05:46.928Z,5.20
2019-03-20T16:08:14.468Z,8.63
2019-03-20T16:10:41.825Z,9.40
2019-03-20T16:13:09.287Z,5.97
2019-03-20T16:15:36.623Z,3.60
2019-03-20T16:18:04.368Z,4.27
2019-03-20T16:20:32.003Z,6.00
2019-03-20T16:22:59.290Z,5.10
2019-03-20T16:25:26.745Z,9.37
2019-03-20T16:27:54.325Z,6.60
2019-03-20T16:30:22.191Z,10.07
2019-03-20T16:32:49.944Z,5.73
2019-03-20T16:35:17.429Z,5.60
2019-03-20T16:37:44.740Z,7.90
2019-03-20T16:40:14.891Z,4.33
2019-03-20T16:42:42.422Z,9.50
2019-03-20T16:45:12.839Z,5.13
2019-03-20T16:47:40.312Z,7.23
2019-03-20T16:50:09.334Z,10.90
2019-03-20T16:52:36.656Z,10.87
2019-03-20T16:55:04.776Z,12.30
2019-03-20T16:57:32.185Z,7.93
2019-03-20T16:59:59.707Z,14.17
2019-03-20T17:02:28.281Z,9.37
2019-03-20T17:04:55.721Z,10.00
2019-03-20T17:07:23.063Z,8.23
2019-03-20T17:09:50.388Z,11.07
2019-03-20T17:12:17.717Z,10.47
2019-03-20T17:14:45.350Z,7.93
2019-03-20T17:17:12.832Z,9.40
2019-03-20T17:19:40.378Z,10.40
2019-03-20T17:22:07.859Z,5.33
2019-03-20T17:24:35.228Z,12.00
2019-03-20T17:27:02.745Z,5.03
2019-03-20T17:29:31.332Z,7.63
2019-03-20T17:31:58.832Z,10.70
2019-03-20T17:34:26.816Z,8.20
2019-03-20T17:36:54.276Z,8.30
2019-03-20T17:39:21.614Z,5.43
2019-03-20T17:41:49.090Z,7.47
2019-03-20T17:44:16.607Z,4.17
2019-03-20T17:46:44.547Z,7.43
2019-03-20T17:49:12.639Z,11.40
2019-03-20T17:51:40.125Z,7.43
2019-03-20T17:54:07.703Z,7.33
2019-03-20T17:56:35.063Z,5.67
2019-03-20T17:59:02.423Z,9.40
2019-03-20T18:01:29.862Z,7.47
2019-03-20T18:03:57.318Z,8.53
2019-03-20T18:06:24.776Z,10.13
2019-03-20T18:08:52.147Z,8.97
2019-03-20T18:11:19.679Z,10.90
2019-03-20T18:13:47.407Z,6.00
2019-03-20T18:16:15.017Z,8.43
2019-03-20T18:18:42.484Z,11.83
2019-03-20T18:21:09.871Z,8.93
2019-03-20T18:23:37.518Z,10.00
2019-03-20T18:26:05.095Z,6.30
2019-03-20T18:28:32.683Z,14.10
2019-03-20T18:31:00.361Z,10.53
2019-03-20T18:33:27.787Z,10.87
2019-03-20T18:35:55.815Z,11.73
2019-03-20T18:38:23.518Z,8.43
2019-03-20T18:40:51.145Z,9.57
2019-03-20T18:43:19.176Z,10.13
2019-03-20T18:45:46.777Z,10.43
2019-03-20T18:48:14.442Z,14.57
2019-03-20T18:50:42.308Z,12.90
2019-03-20T18:53:09.936Z,10.37
2019-03-20T18:55:37.513Z,12.27
2019-03-20T18:58:05.156Z,11.00
2019-03-20T19:00:32.889Z,10.73
2019-03-20T19:03:00.967Z,11.97
2019-03-20T19:05:34.849Z,11.00
2019-03-20T19:08:03.043Z,9.67
2019-03-20T19:10:32.240Z,8.47
2019-03-20T19:13:00.673Z,9.97
2019-03-20T19:15:28.280Z,7.33
2019-03-20T19:17:55.897Z,10.07
2019-03-20T19:20:23.542Z,7.37
2019-03-20T19:22:51.242Z,10.03
2019-03-20T19:25:19.498Z,12.10
2019-03-20T19:27:47.375Z,10.67
2019-03-20T19:30:17.046Z,11.40
2019-03-20T19:32:45.031Z,12.57
2019-03-20T19:35:13.325Z,10.97
2019-03-20T19:37:40.759Z,14.47
2019-03-20T19:40:08.242Z,12.37
2019-03-20T19:42:35.710Z,7.47
2019-03-20T19:45:04.171Z,10.70
2019-03-20T19:47:31.731Z,7.37
2019-03-20T19:49:59.217Z,9.83
2019-03-20T19:52:27.020Z,10.10
2019-03-20T19:54:54.612Z,14.20
2019-03-20T19:57:22.101Z,6.97
2019-03-20T19:59:49.607Z,11.70
2019-03-20T20:02:17.047Z,7.20
2019-03-20T20:04:44.657Z,8.73
2019-03-20T20:07:12.164Z,8.33
2019-03-20T20:09:39.649Z,10.33
2019-03-20T20:12:07.183Z,15.17
2019-03-20T20:14:35.451Z,12.73
2019-03-20T20:17:03.096Z,9.97
2019-03-20T20:19:30.544Z,9.70
2019-03-20T20:21:58.746Z,7.47
2019-03-20T20:24:26.302Z,12.03
2019-03-20T20:26:54.011Z,7.40
2019-03-20T20:29:21.910Z,14.10
2019-03-20T20:31:49.468Z,11.30
2019-03-20T20:34:19.541Z,12.07
2019-03-20T20:36:47.052Z,7.90
2019-03-20T20:39:14.758Z,11.43
2019-03-20T20:41:42.604Z,8.70
2019-03-20T20:44:10.478Z,11.03
2019-03-20T20:46:39.292Z,8.83
2019-03-20T20:49:06.910Z,11.63
2019-03-20T20:51:34.393Z,11.43
2019-03-20T20:54:02.153Z,7.43
2019-03-20T20:56:29.844Z,9.00
2019-03-20T20:58:57.303Z,8.20
2019-03-20T21:01:24.627Z,8.97
2019-03-20T21:03:52.062Z,9.23
2019-03-20T21:06:19.875Z,11.60
2019-03-20T21:08:48.430Z,16.80
2019-03-20T21:11:16.035Z,9.60
2019-03-20T21:13:44.545Z,8.93
2019-03-20T21:16:12.411Z,8.43
2019-03-20T21:19:35.020Z,13.30
2019-03-20T21:22:45.936Z,13.33
2019-03-20T21:25:18.007Z,11.83
2019-03-20T21:28:22.792Z,12.60
2019-03-20T21:31:27.507Z,10.73
2019-03-20T21:34:39.559Z,8.97
2019-03-20T21:37:43.319Z,9.77
2019-03-20T21:40:13.073Z,9.87
2019-03-20T21:43:17.707Z,7.80
2019-03-20T21:46:32.606Z,8.87
2019-03-20T21:49:00.516Z,9.90
2019-03-20T21:51:28.418Z,9.10
2019-03-20T21:54:39.081Z,13.17
2019-03-20T21:57:18.594Z,8.83
2019-03-20T22:00:42.664Z,8.33
2019-03-20T22:03:10.675Z,11.00
2019-03-20T22:06:18.268Z,10.70
2019-03-20T22:08:46.638Z,9.97
2019-03-20T22:12:09.819Z,10.00
2019-03-20T22:14:37.694Z,10.77
2019-03-20T22:17:59.420Z,9.27
2019-03-20T22:20:51.181Z,10.70
2019-03-20T22:23:35.778Z,11.87
2019-03-20T22:26:49.142Z,7.53
2019-03-20T22:29:27.074Z,7.80
2019-03-20T22:32:44.565Z,9.43
2019-03-20T22:35:46.437Z,9.37
2019-03-20T22:38:51.396Z,11.40
2019-03-20T22:42:02.550Z,11.97
2019-03-20T22:44:30.750Z,12.60
2019-03-20T22:47:58.492Z,15.63
2019-03-20T22:51:04.088Z,12.37
2019-03-20T22:54:04.492Z,8.00
2019-03-20T22:57:27.306Z,11.33
2019-03-20T22:59:55.140Z,12.37
2019-03-20T23:02:54.272Z,16.27
2019-03-20T23:05:22.698Z,7.60
2019-03-20T23:07:50.882Z,7.77
2019-03-20T23:10:18.839Z,11.47
2019-03-20T23:12:47.200Z,10.53
2019-03-20T23:15:15.955Z,13.20
2019-03-20T23:17:43.806Z,12.40
2019-03-20T23:20:13.846Z,15.37
2019-03-20T23:22:41.893Z,14.07
2019-03-20T23:25:10.149Z,14.50
2019-03-20T23:27:38.296Z,10.80
2019-03-20T23:30:13.004Z,16.83
2019-03-20T23:32:41.004Z,13.87
2019-03-20T23:35:09.094Z,15.70
2019-03-20T23:37:37.282Z,9.77
2019-03-20T23:40:07.075Z,12.93
2019-03-20T23:42:34.954Z,13.03
2019-03-20T23:45:03.337Z,11.97
2019-03-20T23:47:46.280Z,12.60
2019-03-20T23:50:14.417Z,14.93
2019-03-20T23:52:42.366Z,12.40
2019-03-20T23:55:10.593Z,9.73
2019-03-20T23:57:38.466Z,10.60
